Time;durP1;ratioP1;P1;durP2;ratioP2;P2;SDS_P1;SDS_P2;PMS_P1;PMS_P2;Temp;Humidity;BMP_temperature;BMP_pressure;BME280_temperature;BME280_humidity;BME280_pressure;Samples;Min_cycle;Max_cycle;Signal;HPM_P1;HPM_P2
2021/12/20 00:02:08;;;;;;;6.20;2.10;;;;;;;;;;105894;1292;64031;-25
2021/12/20 00:04:35;;;;;;;5.20;1.70;;;;;;;;;;106113;1292;64061;-26
2021/12/20 00:07:02;;;;;;;3.70;1.30;;;;;;;;;;106093;1289;63930;-25
2021/12/20 00:09:29;;;;;;;5.60;1.80;;;;;;;;;;106098;1286;65186;-24
2021/12/20 00:11:57;;;;;;;5.10;1.50;;;;;;;;;;106142;1289;64072;-25
2021/12/20 00:14:24;;;;;;;5.00;1.90;;;;;;;;;;106191;1291;64012;-24
2021/12/20 00:16:51;;;;;;;4.30;1.60;;;;;;;;;;105927;1290;63991;-25
2021/12/20 00:19:17;;;;;;;4.50;1.70;;;;;;;;;;106069;1289;63919;-25
2021/12/20 00:21:44;;;;;;;4.10;1.60;;;;;;;;;;106115;1290;64061;-25
2021/12/20 00:24:12;;;;;;;5.50;2.00;;;;;;;;;;106136;1289;65188;-27
2021/12/20 00:26:39;;;;;;;4.20;1.50;;;;;;;;;;105814;1293;64104;-27
2021/12/20 00:29:06;;;;;;;4.10;1.30;;;;;;;;;;106105;1292;64084;-24
2021/12/20 00:31:33;;;;;;;4.50;1.40;;;;;;;;;;106142;1292;64023;-23
2021/12/20 00:33:59;;;;;;;4.40;1.50;;;;;;;;;;106139;1292;63924;-24
2021/12/20 00:36:29;;;;;;;4.20;1.50;;;;;;;;;;106100;1287;63990;-24
2021/12/20 00:41:41;;;;;;;4.50;1.50;;;;;;;;;;105924;1291;64030;-25
2021/12/20 00:44:08;;;;;;;5.70;1.70;;;;;;;;;;105940;1292;64077;-26
2021/12/20 00:46:35;;;;;;;3.90;1.50;;;;;;;;;;105865;1289;64061;-26
2021/12/20 00:49:02;;;;;;;4.50;1.60;;;;;;;;;;105932;1292;63978;-27
2021/12/20 00:51:29;;;;;;;5.00;1.70;;;;;;;;;;105923;1289;64127;-24
2021/12/20 00:53:56;;;;;;;4.00;1.50;;;;;;;;;;106091;1288;65172;-24
2021/12/20 00:56:23;;;;;;;4.00;1.30;;;;;;;;;;105914;1291;64021;-25
2021/12/20 00:58:49;;;;;;;3.90;1.40;;;;;;;;;;105918;1292;64705;-26
2021/12/20 01:01:17;;;;;;;4.80;1.60;;;;;;;;;;105908;1291;64055;-25
2021/12/20 01:03:43;;;;;;;4.50;1.40;;;;;;;;;;106121;1291;63926;-24
2021/12/20 01:06:10;;;;;;;3.90;1.50;;;;;;;;;;106108;1290;64055;-25
2021/12/20 01:08:40;;;;;;;5.30;1.40;;;;;;;;;;105927;1292;63917;-25
2021/12/20 01:11:08;;;;;;;4.80;1.40;;;;;;;;;;106109;1289;64150;-26
2021/12/20 01:13:40;;;;;;;3.50;1.40;;;;;;;;;;105930;1291;63943;-25
2021/12/20 01:16:08;;;;;;;4.20;1.40;;;;;;;;;;105958;1290;64311;-25
2021/12/20 01:18:35;;;;;;;4.90;1.40;;;;;;;;;;105927;1289;318688;-25
2021/12/20 01:21:02;;;;;;;4.20;1.40;;;;;;;;;;106134;1291;63944;-26
2021/12/20 01:23:29;;;;;;;4.20;1.80;;;;;;;;;;106078;1288;63964;-25
2021/12/20 01:25:56;;;;;;;4.20;1.40;;;;;;;;;;106103;1288;63930;-26
2021/12/20 01:28:23;;;;;;;4.00;1.40;;;;;;;;;;106124;1291;64112;-24
2021/12/20 01:30:50;;;;;;;4.80;1.70;;;;;;;;;;106130;1292;64345;-24
2021/12/20 01:33:17;;;;;;;5.10;1.50;;;;;;;;;;105903;1292;64016;-26
2021/12/20 01:35:44;;;;;;;4.30;1.40;;;;;;;;;;106090;1291;63946;-24
2021/12/20 01:38:11;;;;;;;4.30;1.40;;;;;;;;;;105880;1289;64059;-24
2021/12/20 01:40:38;;;;;;;4.50;1.50;;;;;;;;;;106153;1284;64179;-25
2021/12/20 01:43:06;;;;;;;4.60;1.60;;;;;;;;;;106152;1292;63925;-25
2021/12/20 01:45:34;;;;;;;4.00;1.60;;;;;;;;;;106175;1288;64044;-26
2021/12/20 01:48:10;;;;;;;4.20;1.50;;;;;;;;;;105864;1292;63932;-24
2021/12/20 01:53:25;;;;;;;3.10;1.10;;;;;;;;;;106116;1291;63933;-24
2021/12/20 01:55:53;;;;;;;4.10;1.40;;;;;;;;;;106098;1291;63942;-25
2021/12/20 01:58:20;;;;;;;4.70;1.40;;;;;;;;;;106095;1289;64043;-25
2021/12/20 02:03:34;;;;;;;3.90;1.50;;;;;;;;;;106132;1288;64040;-28
2021/12/20 02:06:05;;;;;;;3.60;1.20;;;;;;;;;;106100;1291;63948;-26
2021/12/20 02:08:33;;;;;;;3.00;1.10;;;;;;;;;;106079;1291;63941;-25
2021/12/20 02:11:03;;;;;;;3.80;1.40;;;;;;;;;;106123;1291;64019;-23
2021/12/20 02:13:30;;;;;;;4.10;1.40;;;;;;;;;;105921;1291;63947;-26
2021/12/20 02:15:58;;;;;;;4.00;1.30;;;;;;;;;;106122;1287;65150;-26
2021/12/20 02:18:25;;;;;;;3.70;1.20;;;;;;;;;;106097;1288;64073;-26
2021/12/20 02:20:52;;;;;;;3.90;1.20;;;;;;;;;;106149;1289;63984;-26
2021/12/20 02:23:19;;;;;;;3.70;1.30;;;;;;;;;;106118;1291;64016;-22
2021/12/20 02:25:45;;;;;;;3.80;1.20;;;;;;;;;;106121;1287;64143;-24
2021/12/20 02:28:15;;;;;;;5.00;1.70;;;;;;;;;;106071;1287;63958;-23
2021/12/20 02:38:47;;;;;;;3.20;1.00;;;;;;;;;;106002;1291;64023;-23
2021/12/20 02:41:15;;;;;;;4.10;1.10;;;;;;;;;;106153;1287;64053;-24
2021/12/20 02:43:46;;;;;;;4.10;1.40;;;;;;;;;;106196;1291;62796;-26
2021/12/20 02:49:07;;;;;;;3.10;1.10;;;;;;;;;;106029;1289;64774;-26
2021/12/20 02:51:34;;;;;;;4.20;1.50;;;;;;;;;;106131;1290;64740;-27
2021/12/20 02:54:02;;;;;;;3.80;1.30;;;;;;;;;;106130;1291;64821;-24
2021/12/20 02:56:29;;;;;;;3.20;1.10;;;;;;;;;;106107;1288;64731;-24
2021/12/20 02:58:56;;;;;;;2.80;1.10;;;;;;;;;;106119;1287;64771;-30
2021/12/20 03:01:23;;;;;;;3.50;1.20;;;;;;;;;;106120;1288;64818;-25
2021/12/20 03:03:52;;;;;;;2.80;1.10;;;;;;;;;;106130;1288;64845;-26
2021/12/20 03:06:22;;;;;;;3.20;1.10;;;;;;;;;;106124;1291;64774;-26
2021/12/20 03:08:51;;;;;;;4.00;1.20;;;;;;;;;;106153;1288;64812;-25
2021/12/20 03:11:19;;;;;;;3.90;1.30;;;;;;;;;;106088;1287;64875;-29
2021/12/20 03:13:50;;;;;;;3.90;1.30;;;;;;;;;;106080;1288;64861;-26
2021/12/20 03:16:17;;;;;;;2.90;1.00;;;;;;;;;;106094;1289;64921;-26
2021/12/20 03:18:44;;;;;;;4.30;1.40;;;;;;;;;;105655;1293;64995;-24
2021/12/20 03:21:11;;;;;;;3.60;1.10;;;;;;;;;;106120;1289;64840;-24
2021/12/20 03:23:38;;;;;;;3.60;1.30;;;;;;;;;;106144;1287;64874;-23
2021/12/20 03:26:05;;;;;;;3.50;1.40;;;;;;;;;;106104;1288;64733;-28
2021/12/20 03:28:32;;;;;;;3.40;1.30;;;;;;;;;;106114;1288;64836;-26
2021/12/20 03:30:59;;;;;;;3.20;1.40;;;;;;;;;;105791;1289;65969;-32
2021/12/20 03:33:25;;;;;;;3.20;1.10;;;;;;;;;;106096;1291;64880;-27
2021/12/20 03:35:52;;;;;;;3.50;1.10;;;;;;;;;;106117;1288;64812;-28
2021/12/20 03:38:19;;;;;;;4.00;1.40;;;;;;;;;;106095;1284;64879;-24
2021/12/20 03:40:46;;;;;;;3.00;1.20;;;;;;;;;;106100;1288;65607;-25
2021/12/20 03:43:13;;;;;;;3.90;1.20;;;;;;;;;;106149;1291;64872;-23
2021/12/20 03:45:42;;;;;;;3.00;1.10;;;;;;;;;;106147;1290;64841;-27
2021/12/20 03:48:09;;;;;;;3.20;1.10;;;;;;;;;;106126;1291;64821;-25
2021/12/20 03:50:36;;;;;;;4.00;1.10;;;;;;;;;;105893;1292;64847;-26
2021/12/20 03:53:03;;;;;;;3.30;1.10;;;;;;;;;;106109;1289;64760;-24
2021/12/20 03:55:30;;;;;;;4.40;1.50;;;;;;;;;;106095;1291;64846;-26
2021/12/20 03:57:57;;;;;;;2.90;1.00;;;;;;;;;;106117;1288;64815;-26
2021/12/20 04:00:24;;;;;;;4.90;1.30;;;;;;;;;;106126;1287;64838;-26
2021/12/20 04:02:52;;;;;;;3.50;1.10;;;;;;;;;;106092;1290;65470;-24
2021/12/20 04:05:19;;;;;;;3.80;1.00;;;;;;;;;;106107;1288;64820;-23
2021/12/20 04:07:46;;;;;;;3.70;1.10;;;;;;;;;;106110;1287;64801;-24
2021/12/20 04:10:13;;;;;;;3.80;1.20;;;;;;;;;;106120;1289;64843;-24
2021/12/20 04:12:40;;;;;;;3.40;1.10;;;;;;;;;;106142;1290;64924;-24
2021/12/20 04:15:07;;;;;;;3.60;1.00;;;;;;;;;;106121;1287;64969;-25
2021/12/20 04:17:34;;;;;;;3.60;1.20;;;;;;;;;;105912;1289;64745;-26
2021/12/20 04:20:02;;;;;;;3.40;1.20;;;;;;;;;;106116;1287;64840;-26
2021/12/20 04:22:29;;;;;;;3.20;1.10;;;;;;;;;;106118;1288;64739;-24
2021/12/20 04:24:56;;;;;;;3.20;1.10;;;;;;;;;;106121;1291;64859;-25
2021/12/20 04:27:23;;;;;;;2.50;1.10;;;;;;;;;;106098;1288;64805;-24
2021/12/20 04:29:54;;;;;;;2.80;1.00;;;;;;;;;;106085;1287;64890;-25
2021/12/20 04:32:21;;;;;;;3.00;1.10;;;;;;;;;;106096;1291;64818;-24
2021/12/20 04:34:49;;;;;;;2.60;1.00;;;;;;;;;;106126;1288;64848;-25
2021/12/20 04:37:16;;;;;;;4.30;1.10;;;;;;;;;;106088;1288;64846;-26
2021/12/20 04:39:42;;;;;;;4.10;1.20;;;;;;;;;;106109;1287;64816;-24
2021/12/20 04:42:11;;;;;;;3.20;0.90;;;;;;;;;;106115;1288;64886;-26
2021/12/20 04:44:38;;;;;;;3.90;1.00;;;;;;;;;;106072;1291;64774;-25
2021/12/20 04:47:05;;;;;;;2.70;1.00;;;;;;;;;;106096;1287;64802;-25
2021/12/20 04:49:32;;;;;;;3.30;0.90;;;;;;;;;;106104;1289;65930;-25
2021/12/20 04:51:58;;;;;;;2.90;1.00;;;;;;;;;;106131;1287;64906;-25
2021/12/20 04:54:25;;;;;;;2.50;0.90;;;;;;;;;;106086;1287;64859;-26
2021/12/20 04:56:52;;;;;;;3.00;1.00;;;;;;;;;;106125;1288;64844;-24
2021/12/20 04:59:19;;;;;;;2.70;0.90;;;;;;;;;;105912;1292;64882;-26
2021/12/20 05:01:46;;;;;;;2.80;1.00;;;;;;;;;;106136;1287;64777;-25
2021/12/20 05:04:13;;;;;;;3.20;1.00;;;;;;;;;;106120;1287;64830;-23
2021/12/20 05:06:40;;;;;;;3.30;1.10;;;;;;;;;;106078;1287;64901;-24
2021/12/20 05:09:07;;;;;;;2.90;0.90;;;;;;;;;;105903;1290;64748;-23
2021/12/20 05:11:35;;;;;;;1.90;0.80;;;;;;;;;;106140;1288;64903;-24
2021/12/20 05:14:02;;;;;;;2.90;0.80;;;;;;;;;;106152;1287;64890;-27
2021/12/20 05:16:29;;;;;;;2.50;0.90;;;;;;;;;;106089;1284;64980;-25
2021/12/20 05:18:56;;;;;;;2.10;0.70;;;;;;;;;;106161;1287;64820;-34
2021/12/20 05:21:23;;;;;;;2.50;0.80;;;;;;;;;;106117;1288;64974;-24
2021/12/20 05:23:51;;;;;;;2.50;0.80;;;;;;;;;;106135;1289;64889;-26
2021/12/20 05:26:19;;;;;;;3.80;1.00;;;;;;;;;;106077;1289;64837;-26
2021/12/20 05:28:46;;;;;;;2.90;0.80;;;;;;;;;;106116;1287;64771;-30
2021/12/20 05:31:13;;;;;;;2.40;0.80;;;;;;;;;;106107;1287;64842;-25
2021/12/20 05:33:40;;;;;;;3.20;1.10;;;;;;;;;;106132;1287;64773;-24
2021/12/20 05:36:07;;;;;;;2.70;0.80;;;;;;;;;;105903;1288;64845;-24
2021/12/20 05:38:34;;;;;;;3.80;1.00;;;;;;;;;;106142;1287;64818;-32
2021/12/20 05:41:00;;;;;;;3.00;1.10;;;;;;;;;;106112;1290;64851;-32
2021/12/20 05:43:27;;;;;;;1.70;0.70;;;;;;;;;;106139;1288;65394;-25
2021/12/20 05:45:55;;;;;;;3.20;0.90;;;;;;;;;;106113;1288;64758;-24
2021/12/20 05:48:21;;;;;;;3.00;0.90;;;;;;;;;;106122;1288;64938;-26
2021/12/20 05:50:48;;;;;;;2.30;0.80;;;;;;;;;;106095;1288;64856;-26
2021/12/20 05:53:15;;;;;;;3.00;1.00;;;;;;;;;;106136;1288;64734;-24
2021/12/20 05:55:42;;;;;;;2.90;0.90;;;;;;;;;;106109;1288;64891;-36
2021/12/20 05:58:09;;;;;;;2.70;0.80;;;;;;;;;;106136;1287;64861;-35
2021/12/20 06:00:36;;;;;;;3.10;1.00;;;;;;;;;;106117;1288;65043;-26
2021/12/20 06:03:02;;;;;;;2.80;0.80;;;;;;;;;;106068;1288;64790;-26
2021/12/20 06:05:29;;;;;;;2.50;0.70;;;;;;;;;;106118;1289;64737;-26
2021/12/20 06:07:57;;;;;;;2.10;0.70;;;;;;;;;;106098;1291;64846;-25
2021/12/20 06:10:24;;;;;;;2.60;0.70;;;;;;;;;;106161;1287;64723;-26
2021/12/20 06:12:51;;;;;;;3.00;1.00;;;;;;;;;;106131;1288;64701;-28
2021/12/20 06:15:18;;;;;;;2.40;0.80;;;;;;;;;;106113;1287;64869;-28
2021/12/20 06:17:45;;;;;;;2.30;0.60;;;;;;;;;;106120;1287;64775;-25
2021/12/20 06:20:12;;;;;;;2.00;0.80;;;;;;;;;;106155;1287;64950;-25
2021/12/20 06:22:39;;;;;;;2.70;0.80;;;;;;;;;;106124;1287;64709;-23
2021/12/20 06:25:07;;;;;;;2.70;0.80;;;;;;;;;;106108;1287;64846;-24
2021/12/20 06:27:34;;;;;;;2.70;0.90;;;;;;;;;;105929;1291;65001;-25
2021/12/20 06:30:01;;;;;;;2.70;0.90;;;;;;;;;;106140;1289;64929;-26
2021/12/20 06:32:28;;;;;;;2.50;0.90;;;;;;;;;;106129;1287;64928;-25
2021/12/20 06:34:55;;;;;;;2.40;0.80;;;;;;;;;;106119;1289;64820;-33
2021/12/20 06:37:22;;;;;;;1.70;0.60;;;;;;;;;;106121;1287;64757;-32
2021/12/20 06:39:49;;;;;;;2.40;0.80;;;;;;;;;;106106;1287;64734;-25
2021/12/20 06:42:16;;;;;;;2.80;0.90;;;;;;;;;;106100;1290;64771;-26
2021/12/20 06:44:43;;;;;;;2.60;0.70;;;;;;;;;;106086;1289;64838;-25
2021/12/20 06:47:10;;;;;;;2.30;0.80;;;;;;;;;;106149;1288;64774;-25
2021/12/20 06:49:37;;;;;;;3.70;1.00;;;;;;;;;;106147;1287;64961;-28
2021/12/20 06:52:04;;;;;;;2.30;0.70;;;;;;;;;;106118;1287;64837;-26
2021/12/20 06:54:31;;;;;;;2.30;0.70;;;;;;;;;;106159;1287;64893;-44
2021/12/20 06:56:58;;;;;;;2.80;0.90;;;;;;;;;;106126;1288;64835;-25
2021/12/20 06:59:25;;;;;;;2.20;0.90;;;;;;;;;;105992;1288;64815;-24
2021/12/20 07:01:52;;;;;;;1.90;0.70;;;;;;;;;;105909;1290;64841;-24
2021/12/20 07:04:19;;;;;;;3.20;0.80;;;;;;;;;;106104;1284;64880;-25
2021/12/20 07:06:47;;;;;;;2.20;0.80;;;;;;;;;;106123;1287;64870;-25
2021/12/20 07:09:14;;;;;;;2.20;0.80;;;;;;;;;;106148;1287;64902;-24
2021/12/20 07:11:42;;;;;;;2.20;0.80;;;;;;;;;;106134;1287;64729;-24
2021/12/20 07:14:09;;;;;;;2.90;0.80;;;;;;;;;;105950;1291;64880;-26
2021/12/20 07:16:37;;;;;;;2.50;0.80;;;;;;;;;;105903;1289;64779;-25
2021/12/20 07:19:05;;;;;;;2.40;0.90;;;;;;;;;;106152;1289;64918;-25
2021/12/20 07:21:32;;;;;;;1.70;0.70;;;;;;;;;;106137;1288;64712;-25
2021/12/20 07:23:58;;;;;;;2.20;0.70;;;;;;;;;;106132;1287;64858;-26
2021/12/20 07:26:25;;;;;;;2.40;0.80;;;;;;;;;;106137;1287;64850;-26
2021/12/20 07:28:52;;;;;;;2.50;0.80;;;;;;;;;;106170;1288;64909;-24
2021/12/20 07:31:19;;;;;;;2.50;0.80;;;;;;;;;;105829;1287;64833;-25
2021/12/20 07:33:47;;;;;;;1.80;0.70;;;;;;;;;;106106;1287;64799;-27
2021/12/20 07:36:15;;;;;;;2.30;0.70;;;;;;;;;;106124;1291;64853;-25
2021/12/20 07:38:42;;;;;;;1.80;1.00;;;;;;;;;;106103;1289;64903;-25
2021/12/20 07:41:09;;;;;;;2.50;0.80;;;;;;;;;;106048;1287;65233;-26
2021/12/20 07:43:37;;;;;;;2.90;0.90;;;;;;;;;;106092;1287;64802;-25
2021/12/20 07:46:03;;;;;;;2.70;0.80;;;;;;;;;;105900;1287;64875;-25
2021/12/20 07:48:30;;;;;;;1.40;0.50;;;;;;;;;;106153;1288;64878;-29
2021/12/20 07:50:58;;;;;;;2.70;1.00;;;;;;;;;;106097;1288;64834;-27
2021/12/20 07:53:25;;;;;;;2.30;0.80;;;;;;;;;;106095;1290;64752;-25
2021/12/20 07:55:52;;;;;;;2.70;1.00;;;;;;;;;;106144;1287;64856;-25
2021/12/20 07:58:20;;;;;;;2.00;0.80;;;;;;;;;;106150;1289;64868;-25
2021/12/20 08:00:48;;;;;;;2.80;1.00;;;;;;;;;;106144;1287;64867;-24
2021/12/20 08:03:15;;;;;;;2.50;0.90;;;;;;;;;;106083;1287;65545;-23
2021/12/20 08:05:41;;;;;;;1.70;0.70;;;;;;;;;;106032;1287;64781;-23
2021/12/20 08:08:08;;;;;;;2.80;0.90;;;;;;;;;;105976;1290;64851;-24
2021/12/20 08:10:35;;;;;;;4.40;0.90;;;;;;;;;;106072;1288;64764;-29
2021/12/20 08:13:02;;;;;;;2.30;0.80;;;;;;;;;;106055;1280;64682;-27
2021/12/20 08:15:30;;;;;;;3.20;1.00;;;;;;;;;;105955;1287;65006;-26
2021/12/20 08:17:57;;;;;;;2.80;1.00;;;;;;;;;;105876;1289;64916;-26
2021/12/20 08:20:24;;;;;;;2.40;0.90;;;;;;;;;;106146;1288;64767;-27
2021/12/20 08:22:51;;;;;;;2.80;1.00;;;;;;;;;;106093;1287;64868;-23
2021/12/20 08:25:19;;;;;;;2.90;0.90;;;;;;;;;;106106;1289;65257;-36
2021/12/20 08:27:46;;;;;;;3.50;1.10;;;;;;;;;;105940;1289;64761;-27
2021/12/20 08:30:14;;;;;;;3.00;1.10;;;;;;;;;;106110;1287;64828;-26
2021/12/20 08:32:41;;;;;;;3.60;1.50;;;;;;;;;;105953;1291;64858;-23
2021/12/20 08:35:09;;;;;;;2.90;1.00;;;;;;;;;;106112;1287;64843;-23
2021/12/20 08:37:36;;;;;;;3.20;1.10;;;;;;;;;;106183;1290;64867;-27
2021/12/20 08:40:05;;;;;;;2.90;1.20;;;;;;;;;;106132;1287;64741;-27
2021/12/20 08:42:32;;;;;;;3.70;1.20;;;;;;;;;;106129;1288;64871;-26
2021/12/20 08:44:58;;;;;;;3.60;1.20;;;;;;;;;;106122;1287;63982;-28
2021/12/20 08:47:25;;;;;;;5.20;1.70;;;;;;;;;;106071;1284;64945;-24
2021/12/20 08:49:52;;;;;;;3.90;1.40;;;;;;;;;;106114;1287;64830;-24
2021/12/20 08:52:19;;;;;;;5.20;1.50;;;;;;;;;;106118;1288;64673;-24
2021/12/20 08:54:46;;;;;;;3.40;1.30;;;;;;;;;;106100;1287;64855;-27
2021/12/20 08:57:13;;;;;;;4.70;1.40;;;;;;;;;;105920;1289;64808;-25
2021/12/20 08:59:40;;;;;;;3.50;1.20;;;;;;;;;;106051;1287;64798;-26
2021/12/20 09:02:09;;;;;;;3.50;1.20;;;;;;;;;;105918;1288;64844;-28
2021/12/20 09:04:36;;;;;;;5.40;1.60;;;;;;;;;;105984;1288;64867;-27
2021/12/20 09:07:04;;;;;;;3.10;1.30;;;;;;;;;;106156;1287;64878;-26
2021/12/20 09:09:38;;;;;;;3.60;1.30;;;;;;;;;;106150;1288;64950;-28
2021/12/20 09:12:05;;;;;;;3.40;1.60;;;;;;;;;;105923;1289;64812;-28
2021/12/20 09:14:33;;;;;;;3.40;1.40;;;;;;;;;;106120;1287;64703;-27
2021/12/20 09:17:01;;;;;;;3.40;1.30;;;;;;;;;;106102;1287;64846;-28
2021/12/20 09:19:28;;;;;;;4.10;1.20;;;;;;;;;;105967;1290;202051;-24
2021/12/20 09:21:55;;;;;;;4.90;1.50;;;;;;;;;;106084;1287;64825;-24
2021/12/20 09:24:21;;;;;;;3.70;1.30;;;;;;;;;;105950;1284;66831;-23
2021/12/20 09:26:48;;;;;;;3.30;1.20;;;;;;;;;;105995;1290;64911;-26
2021/12/20 09:29:16;;;;;;;4.10;1.80;;;;;;;;;;106133;1287;64765;-24
2021/12/20 09:31:44;;;;;;;4.20;1.40;;;;;;;;;;105918;1291;64700;-26
2021/12/20 09:34:11;;;;;;;3.70;1.60;;;;;;;;;;105960;1290;64826;-30
2021/12/20 09:36:38;;;;;;;3.60;1.40;;;;;;;;;;105964;1291;64833;-24
2021/12/20 09:39:10;;;;;;;4.60;1.40;;;;;;;;;;105959;1291;64869;-26
2021/12/20 09:44:08;;;;;;;2.90;1.10;;;;;;;;;;105952;1291;64774;-27
2021/12/20 09:46:37;;;;;;;3.70;1.50;;;;;;;;;;105973;1291;64827;-30
2021/12/20 09:49:04;;;;;;;4.20;1.20;;;;;;;;;;106134;1288;64806;-26
2021/12/20 09:51:31;;;;;;;3.50;1.20;;;;;;;;;;105867;1292;64833;-26
2021/12/20 09:53:58;;;;;;;3.60;1.60;;;;;;;;;;105952;1291;64868;-23
2021/12/20 09:56:27;;;;;;;3.60;1.30;;;;;;;;;;105893;1291;64915;-27
2021/12/20 09:58:57;;;;;;;3.90;1.50;;;;;;;;;;106094;1288;64800;-27
2021/12/20 10:01:25;;;;;;;3.50;1.30;;;;;;;;;;106143;1289;64703;-23
2021/12/20 10:03:55;;;;;;;3.70;1.30;;;;;;;;;;105919;1291;64949;-26
2021/12/20 10:06:22;;;;;;;3.80;1.10;;;;;;;;;;105921;1288;64921;-26
2021/12/20 10:08:52;;;;;;;2.80;1.30;;;;;;;;;;106143;1291;64826;-24
2021/12/20 10:11:23;;;;;;;3.90;1.30;;;;;;;;;;106125;1287;64854;-23
2021/12/20 10:14:00;;;;;;;3.50;1.30;;;;;;;;;;106168;1287;64879;-27
2021/12/20 10:16:28;;;;;;;3.50;1.20;;;;;;;;;;106181;1287;65133;-27
2021/12/20 10:18:55;;;;;;;3.10;1.10;;;;;;;;;;106119;1291;64749;-26
2021/12/20 10:21:33;;;;;;;3.70;1.40;;;;;;;;;;106123;1291;64832;-26
2021/12/20 10:24:00;;;;;;;3.90;1.30;;;;;;;;;;106175;1288;65001;-30
2021/12/20 10:26:27;;;;;;;5.20;1.50;;;;;;;;;;106071;1287;64857;-26
2021/12/20 10:28:54;;;;;;;3.80;1.40;;;;;;;;;;106018;1287;64772;-26
2021/12/20 10:31:22;;;;;;;4.50;1.50;;;;;;;;;;105832;1289;65935;-28
2021/12/20 10:33:54;;;;;;;4.00;1.40;;;;;;;;;;105913;1291;64872;-26
2021/12/20 10:36:21;;;;;;;4.70;1.30;;;;;;;;;;106135;1287;64857;-26
2021/12/20 10:38:49;;;;;;;4.00;1.40;;;;;;;;;;106111;1288;64939;-25
2021/12/20 10:41:27;;;;;;;4.30;1.40;;;;;;;;;;106141;1288;65437;-27
2021/12/20 10:43:58;;;;;;;5.30;1.90;;;;;;;;;;106138;1287;64849;-25
2021/12/20 10:46:31;;;;;;;5.40;1.50;;;;;;;;;;106159;1288;64840;-24
2021/12/20 10:49:02;;;;;;;4.50;1.40;;;;;;;;;;106012;1288;64914;-24
2021/12/20 10:51:31;;;;;;;4.10;1.30;;;;;;;;;;106106;1285;64945;-24
2021/12/20 10:54:02;;;;;;;4.10;1.60;;;;;;;;;;105969;1288;64872;-23
2021/12/20 10:56:30;;;;;;;5.20;1.70;;;;;;;;;;105939;1287;64748;-25
2021/12/20 10:58:58;;;;;;;6.20;1.50;;;;;;;;;;106120;1288;64476;-26
2021/12/20 11:04:05;;;;;;;5.60;1.40;;;;;;;;;;105813;1292;64850;-24
2021/12/20 11:06:42;;;;;;;3.30;1.30;;;;;;;;;;105965;1287;64841;-27
2021/12/20 11:09:20;;;;;;;3.30;1.40;;;;;;;;;;105829;1290;64998;-25
2021/12/20 11:11:55;;;;;;;3.80;1.40;;;;;;;;;;106120;1291;65508;-25
2021/12/20 11:14:32;;;;;;;4.50;1.40;;;;;;;;;;106089;1289;65566;-24
2021/12/20 11:17:00;;;;;;;3.20;1.10;;;;;;;;;;106094;1291;64774;-25
2021/12/20 11:19:29;;;;;;;3.40;1.30;;;;;;;;;;106116;1287;64784;-25
2021/12/20 11:22:07;;;;;;;3.80;1.10;;;;;;;;;;105951;1287;64868;-27
2021/12/20 11:24:39;;;;;;;4.10;1.60;;;;;;;;;;106105;1288;64875;-26
2021/12/20 11:27:07;;;;;;;3.50;1.20;;;;;;;;;;106053;1287;64806;-25
2021/12/20 11:29:35;;;;;;;3.70;1.20;;;;;;;;;;106014;1291;64703;-24
2021/12/20 11:32:03;;;;;;;3.60;1.30;;;;;;;;;;105863;1289;65030;-25
2021/12/20 11:34:31;;;;;;;4.60;1.20;;;;;;;;;;105862;1291;65382;-30
2021/12/20 11:36:59;;;;;;;5.70;1.20;;;;;;;;;;105908;1290;64743;-27
2021/12/20 11:39:27;;;;;;;3.70;1.20;;;;;;;;;;105934;1290;64933;-29
2021/12/20 11:41:54;;;;;;;4.40;1.70;;;;;;;;;;106053;1287;64814;-23
2021/12/20 11:44:24;;;;;;;4.00;1.40;;;;;;;;;;106091;1287;64793;-26
2021/12/20 11:47:00;;;;;;;5.00;1.50;;;;;;;;;;106094;1287;64809;-28
2021/12/20 11:49:28;;;;;;;4.10;1.50;;;;;;;;;;106101;1288;64742;-24
2021/12/20 11:51:57;;;;;;;3.40;1.30;;;;;;;;;;106080;1291;64929;-24
2021/12/20 11:54:37;;;;;;;3.60;1.30;;;;;;;;;;105963;1290;64917;-37
2021/12/20 11:57:07;;;;;;;3.50;1.10;;;;;;;;;;105849;1290;64873;-25
2021/12/20 11:59:50;;;;;;;4.80;1.20;;;;;;;;;;105955;1288;64743;-25
2021/12/20 12:02:21;;;;;;;3.90;1.30;;;;;;;;;;105496;1283;64920;-25
2021/12/20 12:04:58;;;;;;;3.80;1.20;;;;;;;;;;105641;1291;64860;-25
2021/12/20 12:07:28;;;;;;;4.10;1.50;;;;;;;;;;105652;1290;64842;-25
2021/12/20 12:09:59;;;;;;;3.30;1.20;;;;;;;;;;105891;1291;64795;-24
2021/12/20 12:12:28;;;;;;;3.50;1.20;;;;;;;;;;105711;1294;64852;-31
2021/12/20 12:15:09;;;;;;;4.10;1.30;;;;;;;;;;105845;1290;64828;-25
2021/12/20 12:17:50;;;;;;;4.00;1.30;;;;;;;;;;105856;1292;64833;-25
2021/12/20 12:20:37;;;;;;;3.80;1.30;;;;;;;;;;105861;1290;64770;-27
2021/12/20 12:23:12;;;;;;;3.10;1.20;;;;;;;;;;105646;1293;64866;-27
2021/12/20 12:25:43;;;;;;;3.40;1.20;;;;;;;;;;105801;1294;64981;-25
2021/12/20 12:28:13;;;;;;;2.60;1.10;;;;;;;;;;105863;1290;64915;-25
2021/12/20 12:30:41;;;;;;;4.40;1.60;;;;;;;;;;105875;1294;64853;-25
2021/12/20 12:33:12;;;;;;;4.80;1.40;;;;;;;;;;105643;1293;65060;-26
2021/12/20 12:35:42;;;;;;;3.20;1.20;;;;;;;;;;105859;1289;64896;-26
2021/12/20 12:38:14;;;;;;;3.90;1.10;;;;;;;;;;105776;1294;64959;-24
2021/12/20 12:40:45;;;;;;;3.40;1.30;;;;;;;;;;105824;1291;64945;-24
2021/12/20 12:43:16;;;;;;;3.60;1.10;;;;;;;;;;105892;1288;64818;-27
2021/12/20 12:45:50;;;;;;;3.40;1.40;;;;;;;;;;105659;1293;64981;-25
2021/12/20 12:48:39;;;;;;;3.90;1.30;;;;;;;;;;105894;1292;64836;-26
2021/12/20 12:51:19;;;;;;;3.90;1.30;;;;;;;;;;105839;1293;64808;-26
2021/12/20 12:53:52;;;;;;;3.90;1.20;;;;;;;;;;105768;1293;64804;-29
2021/12/20 12:56:24;;;;;;;2.70;1.00;;;;;;;;;;105619;1290;64857;-27
2021/12/20 12:59:10;;;;;;;4.00;1.30;;;;;;;;;;105951;1291;65068;-25
2021/12/20 13:02:00;;;;;;;4.70;1.30;;;;;;;;;;105853;1290;64774;-24
2021/12/20 13:04:48;;;;;;;3.30;1.20;;;;;;;;;;105779;1290;64870;-25
2021/12/20 13:07:23;;;;;;;3.90;1.00;;;;;;;;;;105681;1290;64829;-31
2021/12/20 13:09:52;;;;;;;4.10;1.20;;;;;;;;;;105648;1291;64803;-36
2021/12/20 13:14:54;;;;;;;3.20;1.10;;;;;;;;;;105871;1292;64884;-25
2021/12/20 13:17:29;;;;;;;3.60;1.30;;;;;;;;;;105906;1289;64813;-30
2021/12/20 13:20:07;;;;;;;3.70;1.80;;;;;;;;;;105935;1290;64902;-26
2021/12/20 13:22:34;;;;;;;3.80;1.30;;;;;;;;;;105875;1288;65395;-32
2021/12/20 13:25:01;;;;;;;4.70;1.20;;;;;;;;;;105773;1290;64796;-25
2021/12/20 13:27:30;;;;;;;4.00;1.30;;;;;;;;;;105789;1290;64969;-23
2021/12/20 13:29:58;;;;;;;4.50;1.50;;;;;;;;;;105834;1288;66075;-24
2021/12/20 13:32:25;;;;;;;5.00;1.30;;;;;;;;;;105803;1294;64830;-25
2021/12/20 13:34:51;;;;;;;3.30;1.40;;;;;;;;;;105831;1291;64946;-25
2021/12/20 13:37:19;;;;;;;4.40;1.30;;;;;;;;;;105890;1292;64840;-30
2021/12/20 13:39:55;;;;;;;3.70;1.20;;;;;;;;;;105871;1292;64889;-26
2021/12/20 13:42:23;;;;;;;3.60;1.30;;;;;;;;;;105757;1290;64850;-26
2021/12/20 13:44:51;;;;;;;3.40;1.30;;;;;;;;;;105894;1291;64842;-25
2021/12/20 13:47:19;;;;;;;2.60;1.20;;;;;;;;;;105928;1289;64813;-25
2021/12/20 13:49:46;;;;;;;4.50;1.10;;;;;;;;;;105880;1292;64835;-25
2021/12/20 13:52:13;;;;;;;3.30;1.30;;;;;;;;;;105895;1289;64805;-25
2021/12/20 13:54:41;;;;;;;2.60;1.00;;;;;;;;;;105874;1291;64875;-25
2021/12/20 13:57:19;;;;;;;3.70;1.20;;;;;;;;;;105927;1293;64973;-27
2021/12/20 13:59:57;;;;;;;2.90;1.00;;;;;;;;;;105903;1289;64771;-25
2021/12/20 14:02:25;;;;;;;3.30;1.40;;;;;;;;;;105909;1292;64840;-27
2021/12/20 14:05:08;;;;;;;2.90;1.20;;;;;;;;;;105910;1289;64832;-25
2021/12/20 14:07:37;;;;;;;;;;;;;;;;;;105880;1288;64820;-27
2021/12/20 14:10:12;;;;;;;2.30;1.00;;;;;;;;;;105803;1290;64778;-26
2021/12/20 14:12:44;;;;;;;3.90;1.20;;;;;;;;;;105930;1291;64823;-26
2021/12/20 14:15:31;;;;;;;3.80;1.20;;;;;;;;;;105907;1291;64971;-25
2021/12/20 14:18:00;;;;;;;4.00;1.40;;;;;;;;;;105900;1290;64771;-29
2021/12/20 14:20:36;;;;;;;4.90;1.40;;;;;;;;;;105901;1291;64847;-23
2021/12/20 14:23:05;;;;;;;3.90;1.30;;;;;;;;;;105867;1292;64920;-23
2021/12/20 14:25:35;;;;;;;3.80;1.50;;;;;;;;;;106109;1287;65061;-24
2021/12/20 14:28:02;;;;;;;3.50;1.20;;;;;;;;;;105997;1291;64815;-26
2021/12/20 14:30:29;;;;;;;3.70;1.50;;;;;;;;;;106128;1288;64859;-33
2021/12/20 14:32:56;;;;;;;6.40;1.60;;;;;;;;;;106101;1289;64848;-25
2021/12/20 14:35:27;;;;;;;3.40;1.30;;;;;;;;;;106111;1291;64927;-24
2021/12/20 14:37:54;;;;;;;6.40;1.40;;;;;;;;;;106075;1289;64681;-25
2021/12/20 14:40:39;;;;;;;3.50;1.10;;;;;;;;;;106124;1287;64792;-23
2021/12/20 14:43:10;;;;;;;4.80;1.60;;;;;;;;;;106108;1287;64733;-24
2021/12/20 14:45:37;;;;;;;3.60;1.20;;;;;;;;;;106092;1289;64744;-25
2021/12/20 14:48:19;;;;;;;4.50;1.30;;;;;;;;;;105894;1288;64888;-24
2021/12/20 14:50:47;;;;;;;3.70;1.30;;;;;;;;;;105975;1291;64825;-25
2021/12/20 14:53:26;;;;;;;5.70;1.50;;;;;;;;;;106170;1288;64834;-23
2021/12/20 14:55:54;;;;;;;4.90;1.20;;;;;;;;;;106096;1291;64709;-24
2021/12/20 16:30:24;;;;;;;13.50;3.80;;;;;;;;;;92045;1280;967292;-25
2021/12/20 16:32:52;;;;;;;7.80;3.40;;;;;;;;;;105649;1285;64898;-33
2021/12/20 16:35:22;;;;;;;7.70;3.20;;;;;;;;;;105643;1294;64842;-27
2021/12/20 16:37:50;;;;;;;6.80;3.90;;;;;;;;;;105863;1290;64849;-26
2021/12/20 16:40:17;;;;;;;7.20;3.00;;;;;;;;;;105850;1291;64939;-25